Flight Track Log - Related Links

Times and Time Zones

All times are in EDT time to prevent confusion due to time zone crossing. See the UAL4335 flight status page for this flight to view local times or setup timezone preferences in your user account.

Time Position Orientation Groundspeed Altitude Reporting Facility
EDT Latitude Longitude Course Direction KTS MPH feet Rate Location/Type
Sat 02:25:46 PM 29.9594 -95.3414 90° East 166 191 700  Level Houston Center
Sat 02:26:29 PM 29.9456 -95.3044 113° Southeast 193 222 2,200 1,781 Climbing Houston Center
Sat 02:26:50 PM 29.9411 -95.2800 102° East 199 229 2,600 1,742 Climbing Houston Center
Sat 02:27:31 PM 29.9467 -95.2272 83° East 267 307 4,000 2,129 Climbing Houston Center
Sat 02:27:52 PM 29.9486 -95.1953 86° East 258 297 4,800 1,574 Climbing Houston Center
Sat 02:28:32 PM 29.9531 -95.1372 85° East 262 302 5,600 1,452 Climbing Houston Center
Sat 02:28:54 PM 29.9564 -95.1106 82° East 264 304 6,300 2,214 Climbing Houston Center
Sat 02:29:00 PM 29.9834 -94.7797 90° East  Level FlightAware Approximate
Sat 02:29:56 PM 29.9633 -95.0186 85° East 283 326 8,700  Level Houston Center
Sat 02:30:00 PM 29.9833 -94.6413 90° East  Level FlightAware Approximate
Sat 02:30:58 PM 29.9669 -94.9250 87° East 290 334 11,400  Level Houston Center
Sat 02:31:00 PM 29.9834 -94.5029 90° East  Level FlightAware Approximate
Sat 02:32:00 PM 29.9725 -94.8333 86° East 286 329 13,600  Level Houston Center
Sat 02:33:02 PM 29.9761 -94.7403 87° East 289 333 15,600 1,887 Climbing Houston Center
Sat 02:34:04 PM 29.9806 -94.6436 87° East 299 344 17,500 1,694 Climbing Houston Center
Sat 02:35:06 PM 29.9872 -94.5211 86° East 318 366 19,100 1,403 Climbing Houston Center
Sat 02:36:08 PM 29.9914 -94.4175 87° East 334 384 20,400 1,258 Climbing Houston Center
Sat 02:37:10 PM 29.9958 -94.3022 87° East 357 411 21,700 1,210 Climbing Houston Center
Sat 02:38:12 PM 30.0114 -94.1814 82° East 377 434 22,900 1,306 Climbing Houston Center
Sat 02:39:14 PM 30.0300 -94.0311 82° East 394 453 24,400 1,016 Climbing Houston Center
Sat 02:40:16 PM 30.0467 -93.9014 82° East 409 471 25,000 290 Climbing Houston Center
Sat 02:41:18 PM 30.0631 -93.7619 82° East 437 503 25,000  Level Houston Center
Sat 02:42:20 PM 30.0808 -93.6150 82° East 463 533 25,000  Level Houston Center
Sat 02:43:22 PM 30.0983 -93.4653 82° East 477 549 25,000  Level Houston Center
Sat 02:44:24 PM 30.1194 -93.2831 82° East 485 558 25,000  Level Houston Center
Sat 02:45:26 PM 30.1383 -93.1317 82° East 482 555 25,000  Level Houston Center
Sat 02:46:28 PM 30.1653 -92.9819 78° East 481 554 25,000  Level Houston Center
Sat 02:47:30 PM 30.1944 -92.8339 77° East 477 549 25,000  Level Houston Center
Sat 02:48:32 PM 30.2236 -92.6847 77° East 478 550 25,000  Level Houston Center
Sat 02:49:34 PM 30.2583 -92.5042 77° East 480 552 25,000  Level Houston Center
Sat 02:50:35 PM 30.2875 -92.3533 77° East 481 554 25,000  Level Houston Center
Sat 02:51:37 PM 30.3417 -92.2144 66° East 482 555 25,000  Level Houston Center
Sat 02:52:39 PM 30.4094 -92.0800 60° Northeast 484 557 25,000  Level Houston Center
Sat 02:53:41 PM 30.4758 -91.9458 60° Northeast 482 555 25,000  Level Houston Center
Sat 02:54:43 PM 30.5575 -91.7847 59° Northeast 484 557 25,000  Level Houston Center
Sat 02:55:45 PM 30.6256 -91.6500 60° Northeast 487 560 25,000  Level Houston Center
Sat 02:56:47 PM 30.6919 -91.5164 60° Northeast 482 555 25,000  Level Houston Center
Sat 02:57:49 PM 30.7581 -91.3817 60° Northeast 481 554 25,000  Level Houston Center
Sat 02:58:51 PM 30.8239 -91.2478 60° Northeast 480 552 25,000  Level Houston Center
Sat 02:59:53 PM 30.8908 -91.1133 60° Northeast 482 555 25,000 -49 Level Houston Center
Sat 03:00:54 PM 30.9614 -90.9681 60° Northeast 480 552 24,900  Descending Houston Center
Sat 03:01:56 PM 31.0281 -90.8317 60° Northeast 482 555 25,000 48 Climbing Houston Center
Sat 03:02:58 PM 31.0928 -90.6969 61° Northeast 479 551 25,000  Level Houston Center
Sat 03:04:00 PM 31.1708 -90.5375 60° Northeast 473 544 25,000  Level Houston Center
Sat 03:05:02 PM 31.2325 -90.4069 61° Northeast 462 532 25,000  Level Houston Center
Sat 03:06:03 PM 31.2958 -90.2781 60° Northeast 457 526 25,000  Level Houston Center
Sat 03:07:05 PM 31.3783 -90.1608 50° Northeast 466 536 25,000  Level Houston Center
Sat 03:08:07 PM 31.4656 -90.0444 49° Northeast 471 542 25,000  Level Houston Center
Sat 03:09:09 PM 31.5542 -89.9267 49° Northeast 480 552 25,000  Level Houston Center
Sat 03:09:57 PM 31.6372 -89.8108 50° Northeast 486 559 25,000  Level Memphis Center
Sat 03:10:57 PM 31.7244 -89.6956 48° Northeast 486 559 25,000  Level Memphis Center
Sat 03:11:57 PM 31.8136 -89.5750 49° Northeast 486 559 25,000  Level Memphis Center
Sat 03:12:14 PM 31.8347 -89.5472 48° Northeast 483 556 25,000  Level Houston Center
Sat 03:12:57 PM 31.9025 -89.4569 48° Northeast 486 559 25,000  Level Memphis Center
Sat 03:13:57 PM 31.9914 -89.3383 49° Northeast 486 559 25,000  Level Memphis Center
Sat 03:14:57 PM 32.0800 -89.2147 50° Northeast 486 559 25,000  Level Memphis Center
Sat 03:15:57 PM 32.1708 -89.0958 48° Northeast 491 565 25,000  Level Memphis Center
Sat 03:16:57 PM 32.2592 -88.9742 49° Northeast 491 565 25,000  Level Memphis Center
Sat 03:17:57 PM 32.3394 -88.8622 50° Northeast 491 565 25,000  Level Memphis Center
Sat 03:18:57 PM 32.4256 -88.7403 50° Northeast 485 558 25,000  Level Memphis Center
Sat 03:19:57 PM 32.5136 -88.6131 51° Northeast 491 565 25,000  Level Memphis Center
Sat 03:20:57 PM 32.5994 -88.4881 51° Northeast 485 558 25,000  Level Memphis Center
Sat 03:21:57 PM 32.6853 -88.3653 50° Northeast 480 552 25,000  Level Memphis Center
Sat 03:22:57 PM 32.7728 -88.2375 51° Northeast 480 552 25,000  Level Memphis Center
Sat 03:25:17 PM 32.9569 -87.9081 56° Northeast 495 570 25,000  Level Atlanta Center
Sat 03:26:17 PM 33.0236 -87.7822 58° Northeast 491 565 25,000  Level Atlanta Center
Sat 03:27:17 PM 33.1028 -87.6494 55° Northeast 491 565 25,000  Level Atlanta Center
Sat 03:28:17 PM 33.1794 -87.5161 55° Northeast 491 565 25,000  Level Atlanta Center
Sat 03:29:17 PM 33.2564 -87.3825 55° Northeast 491 565 25,000  Level Atlanta Center
Sat 03:30:17 PM 33.3453 -87.2592 49° Northeast 491 565 25,000  Level Atlanta Center
Sat 03:31:17 PM 33.4400 -87.1381 47° Northeast 491 565 25,000  Level Atlanta Center
Sat 03:32:17 PM 33.5347 -87.0219 46° Northeast 491 565 25,000  Level Atlanta Center
Sat 03:33:17 PM 33.6275 -86.9003 47° Northeast 491 565 25,000  Level Atlanta Center
Sat 03:34:17 PM 33.7219 -86.7836 46° Northeast 491 565 25,000  Level Atlanta Center
Sat 03:35:17 PM 33.8164 -86.6617 47° Northeast 491 565 25,000  Level Atlanta Center
Sat 03:36:17 PM 33.9108 -86.5419 46° Northeast 491 565 25,000  Level Atlanta Center
Sat 03:37:17 PM 34.0050 -86.4219 47° Northeast 491 565 25,000  Level Atlanta Center
Sat 03:38:17 PM 34.0992 -86.3042 46° Northeast 491 565 25,000  Level Atlanta Center
Sat 03:39:17 PM 34.2039 -86.1661 47° Northeast 497 572 25,000  Level Atlanta Center
Sat 03:40:17 PM 34.2997 -86.0481 45° Northeast 492 566 25,000  Level Atlanta Center
Sat 03:41:17 PM 34.3914 -85.9242 48° Northeast 492 566 25,000  Level Atlanta Center
Sat 03:42:17 PM 34.4850 -85.8053 46° Northeast 492 566 25,000  Level Atlanta Center
Sat 03:43:17 PM 34.5722 -85.6786 50° Northeast 486 559 25,000  Level Atlanta Center
Sat 03:44:17 PM 34.6431 -85.5283 60° Northeast 491 565 25,000  Level Atlanta Center
Sat 03:45:17 PM 34.7094 -85.3756 62° Northeast 502 578 25,000  Level Atlanta Center
Sat 03:46:17 PM 34.7778 -85.2272 61° Northeast 502 578 25,000  Level Atlanta Center
Sat 03:47:17 PM 34.8603 -85.1019 51° Northeast 488 562 25,000  Level Atlanta Center
Sat 03:48:17 PM 34.9572 -84.9917 43° Northeast 469 540 25,000  Level Atlanta Center
Sat 03:49:17 PM 35.0519 -84.8836 43° Northeast 469 540 25,000  Level Atlanta Center
Sat 03:50:17 PM 35.1506 -84.7728 43° Northeast 464 534 25,000  Level Atlanta Center
Sat 03:51:17 PM 35.2431 -84.6644 44° Northeast 464 534 25,000  Level Atlanta Center
Sat 03:52:17 PM 35.3375 -84.5556 43° Northeast 464 534 25,000  Level Atlanta Center
Sat 03:53:17 PM 35.4339 -84.4467 43° Northeast 464 534 25,000  Level Atlanta Center
Sat 03:54:17 PM 35.5261 -84.3347 45° Northeast 464 534 25,000  Level Atlanta Center
Sat 03:55:17 PM 35.6222 -84.2253 43° Northeast 464 534 25,000  Level Atlanta Center
Sat 03:56:17 PM 35.7161 -84.1181 43° Northeast 464 534 25,000  Level Atlanta Center
Sat 03:57:17 PM 35.8039 -84.0158 43° Northeast 464 534 25,000  Level Atlanta Center
Sat 03:58:17 PM 35.8997 -83.9081 42° Northeast 464 534 25,000  Level Atlanta Center
Sat 03:59:17 PM 36.0122 -83.8283 30° Northeast 464 534 25,000  Level Atlanta Center
Sat 04:00:17 PM 36.1267 -83.7586 26° Northeast 459 528 25,000  Level Atlanta Center
Sat 04:01:17 PM 36.2392 -83.6861 27° Northeast 453 521 25,000  Level Atlanta Center
Sat 04:02:17 PM 36.3642 -83.6056 27° Northeast 453 521 25,000  Level Atlanta Center
Sat 04:02:36 PM 36.4033 -83.5794 28° Northeast 461 531 25,000  Level Indianapolis Center
Sat 04:03:37 PM 36.5147 -83.5069 28° Northeast 463 533 25,000  Level Indianapolis Center
Sat 04:04:39 PM 36.6317 -83.4339 27° Northeast 464 534 25,000  Level Indianapolis Center
Sat 04:05:40 PM 36.7489 -83.3572 28° Northeast 470 541 25,000  Level Indianapolis Center
Sat 04:06:42 PM 36.8686 -83.2808 27° Northeast 478 550 25,000  Level Indianapolis Center
Sat 04:07:43 PM 36.9883 -83.2028 28° Northeast 477 549 25,000  Level Indianapolis Center
Sat 04:08:45 PM 37.1092 -83.1239 27° Northeast 479 551 25,000  Level Indianapolis Center
Sat 04:09:46 PM 37.2314 -83.0456 27° Northeast 486 559 25,000  Level Indianapolis Center
Sat 04:10:48 PM 37.3503 -82.9672 28° Northeast 479 551 25,000  Level Indianapolis Center
Sat 04:11:49 PM 37.4853 -82.8786 28° Northeast 464 534 25,000  Level Indianapolis Center
Sat 04:12:51 PM 37.6036 -82.8008 28° Northeast 473 544 25,000  Level Indianapolis Center
Sat 04:13:52 PM 37.7219 -82.7219 28° Northeast 478 550 25,000  Level Indianapolis Center
Sat 04:14:54 PM 37.8358 -82.6339 31° Northeast 476 548 25,000  Level Indianapolis Center
Sat 04:15:55 PM 37.9478 -82.5486 31° Northeast 469 540 25,000  Level Indianapolis Center
Sat 04:16:57 PM 38.0606 -82.4597 32° Northeast 473 544 25,000  Level Indianapolis Center
Sat 04:17:58 PM 38.1758 -82.3689 32° Northeast 472 543 25,000  Level Indianapolis Center
Sat 04:19:00 PM 38.2867 -82.2814 32° Northeast 468 539 25,000  Level Indianapolis Center
Sat 04:20:01 PM 38.3975 -82.1958 31° Northeast 464 534 25,000  Level Indianapolis Center
Sat 04:21:02 PM 38.5081 -82.1081 32° Northeast 464 534 25,000  Level Indianapolis Center
Sat 04:22:04 PM 38.6186 -82.0219 31° Northeast 462 532 25,000  Level Indianapolis Center
Sat 04:23:05 PM 38.7256 -81.9367 32° Northeast 451 519 25,000  Level Indianapolis Center
Sat 04:24:07 PM 38.8317 -81.8525 32° Northeast 442 509 25,000 -146 Level Indianapolis Center
Sat 04:25:08 PM 38.9367 -81.7686 32° Northeast 439 505 24,700 -492 Descending Indianapolis Center
Sat 04:26:09 PM 39.0411 -81.6844 32° Northeast 438 504 24,000 -341 Descending Indianapolis Center
Sat 04:27:11 PM 39.1672 -81.5831 32° Northeast 439 505 24,000 -488 Level Indianapolis Center
Sat 04:28:12 PM 39.2689 -81.4997 32° Northeast 433 498 23,000 -1,171 Descending Indianapolis Center
Sat 04:29:14 PM 39.3683 -81.4197 32° Northeast 421 484 21,600 -976 Descending Indianapolis Center
Sat 04:30:15 PM 39.4672 -81.3400 32° Northeast 416 479 21,000 -456 Descending Indianapolis Center
Sat 04:30:33 PM 39.5042 -81.3094 33° Northeast 424 488 21,000  Level Cleveland Center
Sat 04:31:33 PM 39.6006 -81.2217 35° Northeast 424 488 21,000  Level Cleveland Center
Sat 04:32:33 PM 39.6969 -81.1281 37° Northeast 424 488 21,000  Level Cleveland Center
Sat 04:33:33 PM 39.7931 -81.0369 36° Northeast 429 494 21,000 -900 Level Cleveland Center
Sat 04:34:33 PM 39.8853 -80.9456 37° Northeast 429 494 19,200 -2,550 Descending Cleveland Center
Sat 04:35:33 PM 39.9731 -80.8622 36° Northeast 417 480 15,900 -3,350 Descending Cleveland Center
Sat 04:36:33 PM 40.0586 -80.7839 35° Northeast 388 447 12,500 -2,450 Descending Cleveland Center
Sat 04:37:33 PM 40.1483 -80.7297 25° Northeast 366 421 11,000 -1,150 Descending Cleveland Center
Sat 04:38:33 PM 40.2275 -80.6864 23° Northeast 351 404 10,200 -800 Descending Cleveland Center
Sat 04:39:33 PM 40.3069 -80.6403 24° Northeast 328 377 9,400 -1,600 Descending Cleveland Center
Sat 04:40:33 PM 40.3797 -80.5994 23° Northeast 297 342 7,000 -2,250 Descending Cleveland Center
Sat 04:41:33 PM 40.4467 -80.5614 23° Northeast 272 313 4,900 -1,700 Descending Cleveland Center
Sat 04:42:33 PM 40.5069 -80.5122 32° Northeast 258 297 3,600 -1,300 Descending Cleveland Center

Login

Don't have an account? Register now (free) for customized features, flight alerts, and more!